createdAt,value
2023-02-24T00:00:16.501Z,1001.95
2023-02-24T00:01:16.470Z,1002.03
2023-02-24T00:02:16.511Z,1001.99
2023-02-24T00:03:16.516Z,1001.99
2023-02-24T00:04:16.542Z,1001.98
2023-02-24T00:05:16.458Z,1001.99
2023-02-24T00:06:16.405Z,1001.97
2023-02-24T00:07:17.052Z,1001.98
2023-02-24T00:08:16.448Z,1001.98
2023-02-24T00:09:16.362Z,1001.92
2023-02-24T00:10:16.372Z,1001.93
2023-02-24T00:11:16.341Z,1001.91
2023-02-24T00:12:16.362Z,1001.86
2023-02-24T00:13:16.301Z,1001.81
2023-02-24T00:14:16.356Z,1001.90
2023-02-24T00:15:16.340Z,1001.90
2023-02-24T00:16:16.390Z,1001.82
2023-02-24T00:17:16.400Z,1001.84
2023-02-24T00:18:16.459Z,1001.85
2023-02-24T00:19:16.268Z,1001.77
2023-02-24T00:20:16.318Z,1001.83
2023-02-24T00:21:16.294Z,1001.80
2023-02-24T00:22:16.210Z,1001.73
2023-02-24T00:23:16.191Z,1001.76
2023-02-24T00:24:16.217Z,1001.76
2023-02-24T00:25:16.189Z,1001.74
2023-02-24T00:26:16.169Z,1001.76
2023-02-24T00:27:16.359Z,1001.73
2023-02-24T00:28:16.149Z,1001.73
2023-02-24T00:29:16.138Z,1001.72
2023-02-24T00:30:16.154Z,1001.68
2023-02-24T00:31:16.228Z,1001.72
2023-02-24T00:32:16.324Z,1001.72
2023-02-24T00:33:16.135Z,1001.68
2023-02-24T00:34:16.108Z,1001.67
2023-02-24T00:35:16.093Z,1001.65
2023-02-24T00:36:16.087Z,1001.62
2023-02-24T00:37:16.057Z,1001.65
2023-02-24T00:38:16.108Z,1001.60
2023-02-24T00:39:16.054Z,1001.54
2023-02-24T00:40:16.038Z,1001.54
2023-02-24T00:41:15.986Z,1001.56
2023-02-24T00:42:15.990Z,1001.53
2023-02-24T00:43:16.084Z,1001.51
2023-02-24T00:44:16.040Z,1001.48
2023-02-24T00:45:15.962Z,1001.43
2023-02-24T00:46:16.008Z,1001.51
2023-02-24T00:47:15.946Z,1001.46
2023-02-24T00:48:15.925Z,1001.49
2023-02-24T00:49:15.925Z,1001.45
2023-02-24T00:50:15.966Z,1001.35
2023-02-24T00:51:15.895Z,1001.37
2023-02-24T00:52:15.950Z,1001.38
2023-02-24T00:53:15.859Z,1001.42
2023-02-24T00:54:15.877Z,1001.29
2023-02-24T00:55:15.834Z,1001.28
2023-02-24T00:56:15.953Z,1001.33
2023-02-24T00:57:15.808Z,1001.28
2023-02-24T00:58:15.806Z,1001.26
2023-02-24T00:59:15.809Z,1001.33
2023-02-24T01:00:15.791Z,1001.34
2023-02-24T01:01:15.765Z,1001.28
2023-02-24T01:02:15.853Z,1001.24
2023-02-24T01:03:15.730Z,1001.32
2023-02-24T01:04:15.868Z,1001.27
2023-02-24T01:05:15.734Z,1001.29
2023-02-24T01:06:15.709Z,1001.30
2023-02-24T01:07:15.719Z,1001.31
2023-02-24T01:08:15.689Z,1001.28
2023-02-24T01:09:15.715Z,1001.27
2023-02-24T01:10:15.671Z,1001.30
2023-02-24T01:11:15.666Z,1001.24
2023-02-24T01:12:15.710Z,1001.24
2023-02-24T01:13:15.620Z,1001.26
2023-02-24T01:14:15.617Z,1001.20
2023-02-24T01:15:15.622Z,1001.25
2023-02-24T01:16:15.597Z,1001.27
2023-02-24T01:17:15.589Z,1001.24
2023-02-24T01:18:15.644Z,1001.27
2023-02-24T01:19:15.611Z,1001.21
2023-02-24T01:20:15.585Z,1001.23
2023-02-24T01:21:15.558Z,1001.21
2023-02-24T01:22:15.558Z,1001.20
2023-02-24T01:23:15.547Z,1001.19
2023-02-24T01:24:15.502Z,1001.18
2023-02-24T01:25:15.508Z,1001.17
2023-02-24T01:26:15.508Z,1001.12
2023-02-24T01:27:15.473Z,1001.12
2023-02-24T01:28:15.485Z,1001.07
2023-02-24T01:29:15.432Z,1001.05
2023-02-24T01:30:15.522Z,1001.05
2023-02-24T01:31:15.461Z,1001.00
2023-02-24T01:32:15.686Z,1001.07
2023-02-24T01:33:15.475Z,1001.02
2023-02-24T01:34:15.413Z,1001.04
2023-02-24T01:35:15.387Z,1001.00
2023-02-24T01:36:15.366Z,1001.01
2023-02-24T01:37:15.369Z,1000.96
2023-02-24T01:38:15.374Z,1000.95
2023-02-24T01:39:15.318Z,1000.95
2023-02-24T01:40:15.327Z,1000.95
2023-02-24T01:41:15.393Z,1001.01
2023-02-24T01:42:17.253Z,1000.93
2023-02-24T01:43:15.275Z,1000.98
2023-02-24T01:44:15.295Z,1000.94
2023-02-24T01:45:15.278Z,1000.92
2023-02-24T01:46:15.302Z,1000.90
2023-02-24T01:47:15.367Z,1000.89
2023-02-24T01:48:15.230Z,1000.88
2023-02-24T01:49:15.225Z,1000.91
2023-02-24T01:50:15.247Z,1000.85
2023-02-24T01:51:15.216Z,1000.87
2023-02-24T01:52:15.216Z,1000.86
2023-02-24T01:53:15.299Z,1000.87
2023-02-24T01:54:15.187Z,1000.86
2023-02-24T01:55:15.168Z,1000.84
2023-02-24T01:56:15.172Z,1000.88
2023-02-24T01:57:15.109Z,1000.86
2023-02-24T01:58:15.112Z,1000.83
2023-02-24T01:59:15.115Z,1000.88
2023-02-24T02:00:15.116Z,1000.82
2023-02-24T02:01:15.062Z,1000.85
2023-02-24T02:02:15.167Z,1000.81
2023-02-24T02:03:15.060Z,1000.82
2023-02-24T02:04:15.044Z,1000.84
2023-02-24T02:05:15.204Z,1000.83
2023-02-24T02:06:15.041Z,1000.84
2023-02-24T02:07:15.031Z,1000.85
2023-02-24T02:08:14.988Z,1000.84
2023-02-24T02:09:14.990Z,1000.84
2023-02-24T02:10:14.994Z,1000.86
2023-02-24T02:11:15.042Z,1000.77
2023-02-24T02:12:14.964Z,1000.76
2023-02-24T02:13:14.935Z,1000.79
2023-02-24T02:14:14.941Z,1000.72
2023-02-24T02:15:14.915Z,1000.80
2023-02-24T02:16:14.986Z,1000.68
2023-02-24T02:17:14.888Z,1000.63
2023-02-24T02:18:14.902Z,1000.62
2023-02-24T02:19:14.875Z,1000.59
2023-02-24T02:20:14.870Z,1000.52
2023-02-24T02:21:14.935Z,1000.46
2023-02-24T02:22:14.826Z,1000.43
2023-02-24T02:23:14.849Z,1000.47
2023-02-24T02:24:14.831Z,1000.42
2023-02-24T02:25:14.822Z,1000.39
2023-02-24T02:26:14.782Z,1000.40
2023-02-24T02:27:14.845Z,1000.37
2023-02-24T02:28:14.785Z,1000.34
2023-02-24T02:29:14.752Z,1000.35
2023-02-24T02:30:14.753Z,1000.30
2023-02-24T02:31:14.864Z,1000.30
2023-02-24T02:32:14.875Z,1000.30
2023-02-24T02:33:14.743Z,1000.29
2023-02-24T02:34:14.686Z,1000.27
2023-02-24T02:35:14.677Z,1000.19
2023-02-24T02:36:14.767Z,1000.17
2023-02-24T02:37:14.658Z,1000.21
2023-02-24T02:38:14.633Z,1000.24
2023-02-24T02:39:14.674Z,1000.22
2023-02-24T02:40:14.609Z,1000.18
2023-02-24T02:41:14.638Z,1000.20
2023-02-24T02:42:14.659Z,1000.13
2023-02-24T02:43:14.587Z,1000.10
2023-02-24T02:44:14.568Z,1000.15
2023-02-24T02:45:14.593Z,1000.13
2023-02-24T02:46:14.618Z,1000.14
2023-02-24T02:47:14.652Z,1000.10
2023-02-24T02:48:14.528Z,1000.00
2023-02-24T02:49:14.573Z,1000.05
2023-02-24T02:50:14.560Z,1000.07
2023-02-24T02:51:14.694Z,1000.04
2023-02-24T02:52:14.530Z,1000.03
2023-02-24T02:53:14.569Z,1000.05
2023-02-24T02:54:14.464Z,1000.07
2023-02-24T02:55:14.447Z,1000.10
2023-02-24T02:56:14.416Z,999.96
2023-02-24T02:57:14.563Z,1000.02
2023-02-24T02:58:14.435Z,999.93
2023-02-24T02:59:14.422Z,999.96
2023-02-24T03:00:14.397Z,999.96
2023-02-24T03:01:14.442Z,999.82
2023-02-24T03:02:14.400Z,999.84
2023-02-24T03:03:14.348Z,999.86
2023-02-24T03:04:14.347Z,999.80
2023-02-24T03:05:14.317Z,999.84
2023-02-24T03:06:14.342Z,999.83
2023-02-24T03:07:14.306Z,999.79
2023-02-24T03:08:14.330Z,999.72
2023-02-24T03:09:14.306Z,999.73
2023-02-24T03:10:14.274Z,999.76
2023-02-24T03:11:14.321Z,999.66
2023-02-24T03:12:14.244Z,999.69
2023-02-24T03:13:14.255Z,999.66
2023-02-24T03:14:14.208Z,999.67
2023-02-24T03:15:14.233Z,999.62
2023-02-24T03:16:14.442Z,999.68
2023-02-24T03:17:14.188Z,999.65
2023-02-24T03:18:14.189Z,999.63
2023-02-24T03:19:14.168Z,999.62
2023-02-24T03:20:14.129Z,999.69
2023-02-24T03:21:14.204Z,999.66
2023-02-24T03:22:14.136Z,999.70
2023-02-24T03:23:14.110Z,999.63
2023-02-24T03:24:14.107Z,999.67
2023-02-24T03:25:14.116Z,999.63
2023-02-24T03:26:14.111Z,999.62
2023-02-24T03:27:14.097Z,999.55
2023-02-24T03:28:14.044Z,999.55
2023-02-24T03:29:14.099Z,999.59
2023-02-24T03:30:14.024Z,999.57
2023-02-24T03:31:14.110Z,999.56
2023-02-24T03:32:14.118Z,999.55
2023-02-24T03:33:14.095Z,999.57
2023-02-24T03:34:13.971Z,999.59
2023-02-24T03:35:13.997Z,999.60
2023-02-24T03:36:13.941Z,999.54
2023-02-24T03:37:13.970Z,999.59
2023-02-24T03:38:13.928Z,999.53
2023-02-24T03:39:13.942Z,999.53
2023-02-24T03:40:13.944Z,999.58
2023-02-24T03:41:13.904Z,999.53
2023-02-24T03:42:13.929Z,999.57
2023-02-24T03:43:16.023Z,999.52
2023-02-24T03:44:13.886Z,999.46
2023-02-24T03:45:13.938Z,999.48
2023-02-24T03:46:13.963Z,999.49
2023-02-24T03:47:13.862Z,999.48
2023-02-24T03:48:13.825Z,999.47
2023-02-24T03:49:13.832Z,999.49
2023-02-24T03:50:13.873Z,999.49
2023-02-24T03:51:13.783Z,999.44
2023-02-24T03:52:13.774Z,999.41
2023-02-24T03:53:13.767Z,999.37
2023-02-24T03:54:13.766Z,999.39
2023-02-24T03:55:13.763Z,999.35
2023-02-24T03:56:13.778Z,999.37
2023-02-24T03:57:13.715Z,999.39
2023-02-24T03:58:13.694Z,999.32
2023-02-24T03:59:13.718Z,999.33
2023-02-24T04:00:13.697Z,999.37
2023-02-24T04:01:13.667Z,999.39
2023-02-24T04:02:13.751Z,999.37
2023-02-24T04:03:13.655Z,999.42
2023-02-24T04:04:13.642Z,999.44
2023-02-24T04:05:13.654Z,999.39
2023-02-24T04:06:13.605Z,999.41
2023-02-24T04:07:20.810Z,999.38
2023-02-24T04:08:13.600Z,999.31
2023-02-24T04:09:13.599Z,999.32
2023-02-24T04:10:13.572Z,999.28
2023-02-24T04:11:13.608Z,999.33
2023-02-24T04:12:13.630Z,999.28
2023-02-24T04:13:13.531Z,999.28
2023-02-24T04:14:13.527Z,999.31
2023-02-24T04:15:13.504Z,999.30
2023-02-24T04:16:13.521Z,999.29
2023-02-24T04:17:13.525Z,999.32
2023-02-24T04:18:13.494Z,999.30
2023-02-24T04:19:13.453Z,999.28
2023-02-24T04:20:13.474Z,999.32
2023-02-24T04:21:13.431Z,999.27
2023-02-24T04:22:13.450Z,999.28
2023-02-24T04:23:13.409Z,999.24
2023-02-24T04:24:13.383Z,999.26
2023-02-24T04:25:13.383Z,999.25
2023-02-24T04:26:13.387Z,999.25
2023-02-24T04:27:13.364Z,999.31
2023-02-24T04:28:13.387Z,999.25
2023-02-24T04:29:13.393Z,999.21
2023-02-24T04:30:13.324Z,999.21
2023-02-24T04:31:13.362Z,999.22
2023-02-24T04:32:13.580Z,999.18
2023-02-24T04:33:13.294Z,999.17
2023-02-24T04:34:13.265Z,999.20
2023-02-24T04:35:13.273Z,999.13
2023-02-24T04:36:13.244Z,999.11
2023-02-24T04:37:13.273Z,999.16
2023-02-24T04:38:13.332Z,999.10
2023-02-24T04:39:13.262Z,999.14
2023-02-24T04:40:13.211Z,999.15
2023-02-24T04:41:13.198Z,999.14
2023-02-24T04:42:13.205Z,999.08
2023-02-24T04:43:13.185Z,999.13
2023-02-24T04:44:13.221Z,999.14
2023-02-24T04:45:13.186Z,999.16
2023-02-24T04:46:13.205Z,999.11
2023-02-24T04:47:13.137Z,999.16
2023-02-24T04:48:13.136Z,999.09
2023-02-24T04:49:13.147Z,999.04
2023-02-24T04:50:13.098Z,998.98
2023-02-24T04:51:13.078Z,998.96
2023-02-24T04:52:13.085Z,998.97
2023-02-24T04:53:13.077Z,999.04
2023-02-24T04:54:13.065Z,999.02
2023-02-24T04:55:13.105Z,998.94
2023-02-24T04:56:13.019Z,998.96
2023-02-24T04:57:13.040Z,998.91
2023-02-24T04:58:12.996Z,998.90
2023-02-24T04:59:13.018Z,998.88
2023-02-24T05:00:13.148Z,998.86
2023-02-24T05:01:12.979Z,998.92
2023-02-24T05:02:12.959Z,998.97
2023-02-24T05:03:12.978Z,998.94
2023-02-24T05:04:13.013Z,998.93
2023-02-24T05:05:12.921Z,998.93
2023-02-24T05:06:12.949Z,998.90
2023-02-24T05:07:12.940Z,998.94
2023-02-24T05:08:12.899Z,998.93
2023-02-24T05:09:12.893Z,998.90
2023-02-24T05:10:12.856Z,998.89
2023-02-24T05:11:12.920Z,998.88
2023-02-24T05:12:12.861Z,998.94
2023-02-24T05:13:12.835Z,998.92
2023-02-24T05:14:12.806Z,998.86
2023-02-24T05:15:12.830Z,998.86
2023-02-24T05:16:12.858Z,998.87
2023-02-24T05:17:12.826Z,998.86
2023-02-24T05:18:12.763Z,998.81
2023-02-24T05:19:12.755Z,998.75
2023-02-24T05:20:12.763Z,998.73
2023-02-24T05:21:12.753Z,998.77
2023-02-24T05:22:12.754Z,998.72
2023-02-24T05:23:12.747Z,998.73
2023-02-24T05:24:12.695Z,998.71
2023-02-24T05:25:12.687Z,998.73
2023-02-24T05:26:12.733Z,998.69
2023-02-24T05:27:12.675Z,998.69
2023-02-24T05:28:12.687Z,998.68
2023-02-24T05:29:12.671Z,998.67
2023-02-24T05:30:12.666Z,998.67
2023-02-24T05:31:12.790Z,998.64
2023-02-24T05:32:12.705Z,998.63
2023-02-24T05:33:12.624Z,998.58
2023-02-24T05:34:12.606Z,998.68
2023-02-24T05:35:12.606Z,998.63
2023-02-24T05:36:12.576Z,998.59
2023-02-24T05:37:14.277Z,998.59
2023-02-24T05:38:12.555Z,998.57
2023-02-24T05:39:12.700Z,998.58
2023-02-24T05:40:12.532Z,998.59
2023-02-24T05:41:12.526Z,998.61
2023-02-24T05:42:12.503Z,998.52
2023-02-24T05:43:12.517Z,998.53
2023-02-24T05:44:12.456Z,998.49
2023-02-24T05:45:12.483Z,998.50
2023-02-24T05:46:12.450Z,998.42
2023-02-24T05:47:12.464Z,998.48
2023-02-24T05:48:12.434Z,998.46
2023-02-24T05:49:12.599Z,998.42
2023-02-24T05:50:12.393Z,998.41
2023-02-24T05:51:12.401Z,998.41
2023-02-24T05:52:12.357Z,998.39
2023-02-24T05:53:12.356Z,998.36
2023-02-24T05:54:12.363Z,998.33
2023-02-24T05:55:13.827Z,998.33
2023-02-24T05:56:12.334Z,998.34
2023-02-24T05:57:12.333Z,998.33
2023-02-24T05:58:12.299Z,998.28
2023-02-24T05:59:12.318Z,998.29
2023-02-24T06:00:12.270Z,998.27
2023-02-24T06:01:12.315Z,998.29
2023-02-24T06:02:12.311Z,998.29
2023-02-24T06:03:12.314Z,998.28
2023-02-24T06:04:12.247Z,998.22
2023-02-24T06:05:12.258Z,998.18
2023-02-24T06:06:12.254Z,998.20
2023-02-24T06:07:12.202Z,998.17
2023-02-24T06:08:12.194Z,998.15
2023-02-24T06:09:12.182Z,998.11
2023-02-24T06:10:12.216Z,998.14
2023-02-24T06:11:12.178Z,998.14
2023-02-24T06:12:12.149Z,998.14
2023-02-24T06:13:12.158Z,998.11
2023-02-24T06:14:12.126Z,998.10
2023-02-24T06:15:12.133Z,998.08
2023-02-24T06:16:12.500Z,998.06
2023-02-24T06:17:12.080Z,998.06
2023-02-24T06:18:12.079Z,998.07
2023-02-24T06:19:12.085Z,998.09
2023-02-24T06:20:12.047Z,998.08
2023-02-24T06:21:12.047Z,998.07
2023-02-24T06:22:12.043Z,998.04
2023-02-24T06:23:11.999Z,997.99
2023-02-24T06:24:12.012Z,997.98
2023-02-24T06:25:12.040Z,997.98
2023-02-24T06:26:12.004Z,997.96
2023-02-24T06:27:11.977Z,997.98
2023-02-24T06:28:11.951Z,998.03
2023-02-24T06:29:11.923Z,998.01
2023-02-24T06:30:11.961Z,997.95
2023-02-24T06:31:11.912Z,997.95
2023-02-24T06:32:13.775Z,997.95
2023-02-24T06:33:11.910Z,997.95
2023-02-24T06:34:11.928Z,997.90
2023-02-24T06:35:11.856Z,997.94
2023-02-24T06:36:11.857Z,997.92
2023-02-24T06:37:11.882Z,997.92
2023-02-24T06:38:11.883Z,997.86
2023-02-24T06:39:11.849Z,997.85
2023-02-24T06:40:11.844Z,997.88
2023-02-24T06:41:11.803Z,997.83
2023-02-24T06:42:11.878Z,997.85
2023-02-24T06:43:11.828Z,997.86
2023-02-24T06:44:11.780Z,997.85
2023-02-24T06:45:11.795Z,997.89
2023-02-24T06:46:11.850Z,997.85
2023-02-24T06:47:11.749Z,997.85
2023-02-24T06:48:11.766Z,997.85
2023-02-24T06:49:11.699Z,997.79
2023-02-24T06:50:11.796Z,997.77
2023-02-24T06:51:11.679Z,997.82
2023-02-24T06:52:11.845Z,997.81
2023-02-24T06:53:11.676Z,997.79
2023-02-24T06:54:11.651Z,997.84
2023-02-24T06:55:11.663Z,997.80
2023-02-24T06:56:11.688Z,997.77
2023-02-24T06:57:11.612Z,997.72
2023-02-24T06:58:11.612Z,997.75
2023-02-24T06:59:11.719Z,997.82
2023-02-24T07:00:11.612Z,997.81
2023-02-24T07:01:11.605Z,997.76
2023-02-24T07:02:11.563Z,997.82
2023-02-24T07:03:11.534Z,997.77
2023-02-24T07:04:11.618Z,997.81
2023-02-24T07:05:11.541Z,997.76
2023-02-24T07:06:11.511Z,997.75
2023-02-24T07:07:11.499Z,997.75
2023-02-24T07:08:11.495Z,997.72
2023-02-24T07:09:11.730Z,997.68
2023-02-24T07:10:11.468Z,997.67
2023-02-24T07:11:11.487Z,997.62
2023-02-24T07:12:11.469Z,997.66
2023-02-24T07:13:11.439Z,997.69
2023-02-24T07:14:11.445Z,997.69
2023-02-24T07:15:11.423Z,997.67
2023-02-24T07:16:11.525Z,997.66
2023-02-24T07:17:11.422Z,997.72
2023-02-24T07:18:11.374Z,997.73
2023-02-24T07:19:11.481Z,997.75
2023-02-24T07:20:11.360Z,997.73
2023-02-24T07:21:11.364Z,997.70
2023-02-24T07:22:11.383Z,997.73
2023-02-24T07:23:11.334Z,997.74
2023-02-24T07:24:11.335Z,997.75
2023-02-24T07:25:11.310Z,997.75
2023-02-24T07:26:11.274Z,997.63
2023-02-24T07:27:11.264Z,997.63
2023-02-24T07:28:11.301Z,997.63
2023-02-24T07:29:11.262Z,997.63
2023-02-24T07:30:11.269Z,997.63
2023-02-24T07:31:11.302Z,997.53
2023-02-24T07:32:11.454Z,997.54
2023-02-24T07:33:11.184Z,997.54
2023-02-24T07:34:11.186Z,997.49
2023-02-24T07:35:11.202Z,997.55
2023-02-24T07:36:11.170Z,997.49
2023-02-24T07:37:11.306Z,997.52
2023-02-24T07:38:11.134Z,997.43
2023-02-24T07:39:11.146Z,997.45
2023-02-24T07:40:11.118Z,997.39
2023-02-24T07:41:11.085Z,997.34
2023-02-24T07:42:11.101Z,997.41
2023-02-24T07:43:11.108Z,997.36
2023-02-24T07:44:11.088Z,997.39
2023-02-24T07:45:11.073Z,997.32
2023-02-24T07:46:11.216Z,997.31
2023-02-24T07:47:11.059Z,997.29
2023-02-24T07:48:11.137Z,997.27
2023-02-24T07:49:11.029Z,997.28
2023-02-24T07:50:11.030Z,997.23
2023-02-24T07:51:10.999Z,997.20
2023-02-24T07:52:10.978Z,997.20
2023-02-24T07:53:10.947Z,997.22
2023-02-24T07:54:11.000Z,997.20
2023-02-24T07:55:10.956Z,997.16
2023-02-24T07:56:10.968Z,997.16
2023-02-24T07:57:10.931Z,997.16
2023-02-24T07:58:10.928Z,997.15
2023-02-24T07:59:10.915Z,997.10
2023-02-24T08:00:12.215Z,997.11
2023-02-24T08:01:10.883Z,997.07
2023-02-24T08:02:10.949Z,997.08
2023-02-24T08:03:10.844Z,997.10
2023-02-24T08:04:10.855Z,997.09
2023-02-24T08:05:10.864Z,997.09
2023-02-24T08:06:10.835Z,997.04
2023-02-24T08:07:10.793Z,997.12
2023-02-24T08:08:10.821Z,997.02
2023-02-24T08:09:10.762Z,996.95
2023-02-24T08:10:10.774Z,997.00
2023-02-24T08:11:10.768Z,996.92
2023-02-24T08:12:10.763Z,996.95
2023-02-24T08:13:10.720Z,996.91
2023-02-24T08:14:10.750Z,996.91
2023-02-24T08:15:10.695Z,996.89
2023-02-24T08:16:10.823Z,996.83
2023-02-24T08:17:10.682Z,996.85
2023-02-24T08:18:10.715Z,996.78
2023-02-24T08:19:10.676Z,996.76
2023-02-24T08:20:10.658Z,996.72
2023-02-24T08:21:10.639Z,996.73
2023-02-24T08:22:10.628Z,996.63
2023-02-24T08:23:10.652Z,996.66
2023-02-24T08:24:10.625Z,996.70
2023-02-24T08:25:10.576Z,996.74
2023-02-24T08:26:10.637Z,996.67
2023-02-24T08:27:10.558Z,996.68
2023-02-24T08:28:10.582Z,996.66
2023-02-24T08:29:10.534Z,996.67
2023-02-24T08:30:10.529Z,996.64
2023-02-24T08:31:10.648Z,996.61
2023-02-24T08:32:10.671Z,996.68
2023-02-24T08:33:10.493Z,996.60
2023-02-24T08:34:10.613Z,996.56
2023-02-24T08:35:10.468Z,996.57
2023-02-24T08:36:10.460Z,996.59
2023-02-24T08:37:10.494Z,996.61
2023-02-24T08:38:10.466Z,996.63
2023-02-24T08:39:10.418Z,996.59
2023-02-24T08:40:10.497Z,996.57
2023-02-24T08:41:10.390Z,996.60
2023-02-24T08:42:10.421Z,996.56
2023-02-24T08:43:10.397Z,996.59
2023-02-24T08:44:10.395Z,996.55
2023-02-24T08:45:10.360Z,996.58
2023-02-24T08:46:10.466Z,996.57
2023-02-24T08:47:10.323Z,996.53
2023-02-24T08:48:10.354Z,996.49
2023-02-24T08:49:10.306Z,996.47
2023-02-24T08:50:10.335Z,996.48
2023-02-24T08:51:10.329Z,996.47
2023-02-24T08:52:10.323Z,996.43
2023-02-24T08:53:10.288Z,996.42
2023-02-24T08:54:10.302Z,996.41
2023-02-24T08:55:10.230Z,996.32
2023-02-24T08:56:10.278Z,996.36
2023-02-24T08:57:10.240Z,996.32
2023-02-24T08:58:10.217Z,996.33
2023-02-24T08:59:10.227Z,996.31
2023-02-24T09:00:10.222Z,996.31
2023-02-24T09:01:10.240Z,996.30
2023-02-24T09:02:10.197Z,996.23
2023-02-24T09:03:10.141Z,996.28
2023-02-24T09:04:10.162Z,996.21
2023-02-24T09:05:11.858Z,996.23
2023-02-24T09:06:10.178Z,996.22
2023-02-24T09:07:11.940Z,996.25
2023-02-24T09:08:10.118Z,996.22
2023-02-24T09:09:10.112Z,996.27
2023-02-24T09:10:10.079Z,996.24
2023-02-24T09:11:10.284Z,996.18
2023-02-24T09:12:10.081Z,996.21
2023-02-24T09:13:10.057Z,996.21
2023-02-24T09:14:21.149Z,996.17
2023-02-24T09:15:11.029Z,996.15
2023-02-24T09:16:10.097Z,996.15
2023-02-24T09:17:09.982Z,996.12
2023-02-24T09:18:09.983Z,996.09
2023-02-24T09:19:09.990Z,996.16
2023-02-24T09:20:09.990Z,996.15
2023-02-24T09:21:09.960Z,996.13
2023-02-24T09:22:16.566Z,996.10
2023-02-24T09:23:10.923Z,996.13
2023-02-24T09:24:09.938Z,996.13
2023-02-24T09:25:09.884Z,996.11
2023-02-24T09:26:09.913Z,996.08
2023-02-24T09:27:09.891Z,996.10
2023-02-24T09:28:09.957Z,996.13
2023-02-24T09:29:09.834Z,996.06
2023-02-24T09:30:09.843Z,995.95
2023-02-24T09:31:09.930Z,996.04
2023-02-24T09:32:09.928Z,996.01
2023-02-24T09:33:10.110Z,996.05
2023-02-24T09:34:09.805Z,995.96
2023-02-24T09:35:09.802Z,995.98
2023-02-24T09:36:10.144Z,996.04
2023-02-24T09:37:09.764Z,996.01
2023-02-24T09:38:09.880Z,995.95
2023-02-24T09:39:09.769Z,995.95
2023-02-24T09:40:09.742Z,995.94
2023-02-24T09:41:18.250Z,995.84
2023-02-24T09:42:10.776Z,995.83
2023-02-24T09:43:09.703Z,995.74
2023-02-24T09:44:09.679Z,995.72
2023-02-24T09:45:09.684Z,995.74
2023-02-24T09:46:09.705Z,995.73
2023-02-24T09:47:09.653Z,995.76
2023-02-24T09:48:09.682Z,995.74
2023-02-24T09:49:09.616Z,995.73
2023-02-24T09:50:09.606Z,995.65
2023-02-24T09:51:09.578Z,995.68
2023-02-24T09:52:09.578Z,995.70
2023-02-24T09:53:11.460Z,995.59
2023-02-24T09:54:09.585Z,995.63
2023-02-24T09:55:09.574Z,995.61
2023-02-24T09:56:09.560Z,995.59
2023-02-24T09:57:09.658Z,995.66
2023-02-24T09:58:09.566Z,995.63
2023-02-24T09:59:09.515Z,995.60
2023-02-24T10:00:09.545Z,995.61
2023-02-24T10:01:09.525Z,995.50
2023-02-24T10:02:09.511Z,995.42
2023-02-24T10:03:09.441Z,995.48
2023-02-24T10:04:20.073Z,995.44
2023-02-24T10:05:10.425Z,995.43
2023-02-24T10:06:09.446Z,995.44
2023-02-24T10:07:09.429Z,995.48
2023-02-24T10:08:09.391Z,995.50
2023-02-24T10:09:09.401Z,995.46
2023-02-24T10:10:09.548Z,995.43
2023-02-24T10:11:09.349Z,995.39
2023-02-24T10:12:09.379Z,995.39
2023-02-24T10:13:09.323Z,995.34
2023-02-24T10:14:09.330Z,995.40
2023-02-24T10:15:09.333Z,995.35
2023-02-24T10:16:09.332Z,995.41
2023-02-24T10:17:09.302Z,995.38
2023-02-24T10:18:09.301Z,995.37
2023-02-24T10:19:09.324Z,995.35
2023-02-24T10:20:09.286Z,995.15
2023-02-24T10:21:09.295Z,995.35
2023-02-24T10:22:09.292Z,995.33
2023-02-24T10:23:09.230Z,995.22
2023-02-24T10:24:09.240Z,995.17
2023-02-24T10:25:09.186Z,995.25
2023-02-24T10:27:59.664Z,995.21
2023-02-24T10:28:20.186Z,995.18
2023-02-24T10:29:20.179Z,995.17
2023-02-24T10:30:20.247Z,995.19
2023-02-24T10:31:20.592Z,995.15
2023-02-24T10:32:20.266Z,995.16
2023-02-24T10:33:20.166Z,995.18
2023-02-24T10:34:21.547Z,995.08
2023-02-24T10:35:20.196Z,995.12
2023-02-24T10:36:20.090Z,995.08
2023-02-24T10:37:28.131Z,995.11
2023-02-24T10:38:21.103Z,995.01
2023-02-24T10:39:20.050Z,995.07
2023-02-24T10:40:20.019Z,995.07
2023-02-24T10:41:20.377Z,995.05
2023-02-24T10:42:20.089Z,995.04
2023-02-24T10:43:20.097Z,995.06
2023-02-24T10:44:20.016Z,995.10
2023-02-24T10:46:42.850Z,995.01
2023-02-24T10:47:31.985Z,994.90
2023-02-24T10:48:44.176Z,994.97
2023-02-24T10:49:31.949Z,995.03
2023-02-24T10:50:32.480Z,994.97
2023-02-24T10:51:30.922Z,994.90
2023-02-24T10:52:30.908Z,994.96
2023-02-24T10:53:30.935Z,994.94
2023-02-24T10:54:30.929Z,994.96
2023-02-24T10:55:30.890Z,994.92
2023-02-24T10:56:30.892Z,994.87
2023-02-24T10:57:30.859Z,994.93
2023-02-24T10:58:30.942Z,994.92
2023-02-24T10:59:30.916Z,994.81
2023-02-24T11:01:06.662Z,994.89
2023-02-24T11:01:30.814Z,994.81
2023-02-24T11:02:30.800Z,994.79
2023-02-24T11:03:32.956Z,994.77
2023-02-24T11:04:32.556Z,994.77
2023-02-24T11:05:30.759Z,994.75
2023-02-24T11:06:30.829Z,994.70
2023-02-24T11:07:30.754Z,994.71
2023-02-24T11:08:30.710Z,994.66
2023-02-24T11:09:30.965Z,994.71
2023-02-24T11:10:30.689Z,994.65
2023-02-24T11:11:30.694Z,994.64
2023-02-24T11:12:30.687Z,994.65
2023-02-24T11:13:30.693Z,994.56
2023-02-24T11:14:30.676Z,994.50
2023-02-24T11:15:30.724Z,994.56
2023-02-24T11:16:30.639Z,994.49
2023-02-24T11:17:30.630Z,994.51
2023-02-24T11:18:30.616Z,994.47
2023-02-24T11:19:30.599Z,994.49
2023-02-24T11:20:46.182Z,994.42
2023-02-24T11:21:31.631Z,994.48
2023-02-24T11:22:30.541Z,994.44
2023-02-24T11:23:30.548Z,994.38
2023-02-24T11:24:30.559Z,994.41
2023-02-24T11:25:30.555Z,994.38
2023-02-24T11:26:30.510Z,994.36
2023-02-24T11:27:30.520Z,994.33
2023-02-24T11:28:30.506Z,994.27
2023-02-24T11:29:30.488Z,994.34
2023-02-24T11:30:30.477Z,994.28
2023-02-24T11:31:30.640Z,994.25
2023-02-24T11:32:30.645Z,994.20
2023-02-24T11:33:30.471Z,994.16
2023-02-24T11:34:30.413Z,994.16
2023-02-24T11:35:30.438Z,994.14
2023-02-24T11:36:30.381Z,994.09
2023-02-24T11:37:30.480Z,994.11
2023-02-24T11:38:30.362Z,994.11
2023-02-24T11:39:30.362Z,994.01
2023-02-24T11:40:30.365Z,994.05
2023-02-24T11:41:30.360Z,994.01
2023-02-24T11:42:30.317Z,993.99
2023-02-24T11:43:30.389Z,993.99
2023-02-24T11:44:30.319Z,993.91
2023-02-24T11:45:30.302Z,993.93
2023-02-24T11:46:30.295Z,993.88
2023-02-24T11:47:30.362Z,993.96
2023-02-24T11:48:30.279Z,993.93
2023-02-24T11:49:30.282Z,993.92
2023-02-24T11:50:30.248Z,993.95
2023-02-24T11:51:30.228Z,993.92
2023-02-24T11:52:30.206Z,993.83
2023-02-24T11:53:30.261Z,993.82
2023-02-24T11:54:30.210Z,993.80
2023-02-24T11:55:30.202Z,993.79
2023-02-24T11:56:30.185Z,993.78
2023-02-24T11:57:30.322Z,993.80
2023-02-24T11:58:30.203Z,993.72
2023-02-24T11:59:30.160Z,993.75
2023-02-24T12:00:30.112Z,993.66
2023-02-24T12:01:30.188Z,993.75
2023-02-24T12:02:30.123Z,993.69
2023-02-24T12:03:30.134Z,993.68
2023-02-24T12:04:30.085Z,993.69
2023-02-24T12:05:30.127Z,993.64
2023-02-24T12:06:30.037Z,993.60
2023-02-24T12:07:30.050Z,993.63
2023-02-24T12:08:30.070Z,993.59
2023-02-24T12:09:30.059Z,993.67
2023-02-24T12:10:30.025Z,993.65
2023-02-24T12:11:29.998Z,993.58
2023-02-24T12:12:30.012Z,993.56
2023-02-24T12:13:29.990Z,993.55
2023-02-24T12:14:29.961Z,993.54
2023-02-24T12:15:29.946Z,993.49
2023-02-24T12:16:29.983Z,993.50
2023-02-24T12:17:30.100Z,993.50
2023-02-24T12:18:29.942Z,993.47
2023-02-24T12:19:29.908Z,993.46
2023-02-24T12:20:29.947Z,993.48
2023-02-24T12:21:29.906Z,993.44
2023-02-24T12:22:29.890Z,993.43
2023-02-24T12:23:30.068Z,993.44
2023-02-24T12:24:29.872Z,993.44